Enville, Tennessee
Current Conditions -  °F | °C
As of 12:55 PM on Thursday 23 Oct 2014 (Local Time) from KSNH Reporting Station
Clear Clear  
Wind Chill: 63°   Ceiling: Unl
Heat Index: 63°   Visibility: 10mi
Dew Point: 45°   Wind: 0mph
Humidity: 52%   Direction: NA
Pressure: 30.16"   Gusts: NA
Location:  35.38°N, 88.43°W
Report Text: KSNH 231755Z AUTO 00000KT 10SM CLR 17/07 A3016 RMK
Loading
Personal Weather Stations






























Interactive Weather Map
Tropical Storm Tracking
New forecast layout! Learn more

10-Day Weather Forecast

Advertisements
Track Severe Weather on mobile